createdAt,value
2018-09-20T00:00:51.453Z,79.40
2018-09-20T00:03:19.965Z,79.70
2018-09-20T00:05:48.477Z,79.70
2018-09-20T00:08:17.028Z,79.70
2018-09-20T00:10:45.555Z,79.90
2018-09-20T00:13:14.079Z,80.10
2018-09-20T00:15:42.597Z,80.10
2018-09-20T00:18:11.115Z,80.10
2018-09-20T00:20:39.640Z,80.20
2018-09-20T00:23:08.148Z,80.30
2018-09-20T00:25:36.679Z,79.70
2018-09-20T00:28:05.209Z,80.30
2018-09-20T00:30:33.748Z,80.50
2018-09-20T00:33:02.286Z,80.60
2018-09-20T00:35:30.808Z,80.80
2018-09-20T00:37:59.320Z,80.60
2018-09-20T00:40:27.864Z,80.50
2018-09-20T00:42:56.382Z,80.10
2018-09-20T00:45:24.920Z,79.80
2018-09-20T00:47:53.424Z,79.90
2018-09-20T00:50:21.984Z,80.00
2018-09-20T00:52:50.531Z,80.20
2018-09-20T00:55:19.040Z,80.50
2018-09-20T00:57:47.540Z,80.50
2018-09-20T01:00:16.068Z,80.80
2018-09-20T01:02:44.616Z,80.80
2018-09-20T01:05:13.456Z,81.10
2018-09-20T01:07:41.968Z,81.00
2018-09-20T01:10:10.496Z,81.30
2018-09-20T01:12:38.992Z,81.20
2018-09-20T01:15:08.930Z,81.40
2018-09-20T01:17:37.591Z,81.60
2018-09-20T01:20:06.296Z,81.80
2018-09-20T01:22:34.800Z,81.90
2018-09-20T01:25:03.432Z,81.70
2018-09-20T01:27:31.969Z,81.90
2018-09-20T01:30:00.496Z,82.10
2018-09-20T01:32:29.018Z,82.30
2018-09-20T01:34:57.482Z,82.40
2018-09-20T01:37:26.017Z,82.50
2018-09-20T01:39:54.494Z,82.40
2018-09-20T01:42:22.964Z,82.30
2018-09-20T01:44:51.455Z,82.10
2018-09-20T01:47:19.928Z,82.30
2018-09-20T01:49:48.387Z,82.20
2018-09-20T01:52:16.884Z,82.40
2018-09-20T01:54:45.339Z,82.60
2018-09-20T01:57:13.833Z,82.70
2018-09-20T01:59:42.351Z,83.50
2018-09-20T02:02:10.800Z,82.80
2018-09-20T02:04:39.270Z,83.10
2018-09-20T02:07:07.780Z,83.00
2018-09-20T02:09:36.270Z,82.80
2018-09-20T02:12:04.750Z,83.50
2018-09-20T02:14:33.254Z,83.20
2018-09-20T02:17:01.754Z,82.60
2018-09-20T02:19:30.558Z,83.30
2018-09-20T02:21:59.050Z,83.30
2018-09-20T02:24:27.558Z,83.20
2018-09-20T02:26:56.028Z,83.50
2018-09-20T02:29:24.513Z,83.90
2018-09-20T02:31:52.977Z,83.60
2018-09-20T02:34:21.466Z,83.50
2018-09-20T02:36:50.033Z,83.50
2018-09-20T02:39:18.500Z,83.50
2018-09-20T02:41:47.001Z,83.70
2018-09-20T02:44:15.478Z,83.60
2018-09-20T02:46:43.934Z,83.70
2018-09-20T02:49:12.426Z,83.50
2018-09-20T02:51:40.903Z,83.60
2018-09-20T02:54:09.463Z,83.50
2018-09-20T02:56:38.311Z,83.50
2018-09-20T02:59:06.861Z,83.40
2018-09-20T03:01:35.325Z,83.50
2018-09-20T03:04:03.839Z,83.50
2018-09-20T03:06:32.339Z,83.70
2018-09-20T03:09:00.807Z,83.60
2018-09-20T03:11:29.282Z,83.80
2018-09-20T03:13:57.809Z,84.60
2018-09-20T03:16:26.297Z,83.90
2018-09-20T03:18:54.781Z,83.80
2018-09-20T03:21:23.273Z,84.10
2018-09-20T03:23:51.773Z,84.20
2018-09-20T03:26:20.284Z,84.30
2018-09-20T03:28:48.739Z,84.10
2018-09-20T03:31:17.220Z,84.20
2018-09-20T03:33:45.691Z,84.40
2018-09-20T03:36:14.167Z,84.40
2018-09-20T03:38:42.727Z,84.50
2018-09-20T03:41:11.208Z,84.50
2018-09-20T03:43:39.942Z,84.60
2018-09-20T03:46:08.434Z,84.70
2018-09-20T03:48:36.918Z,84.50
2018-09-20T03:51:05.378Z,84.50
2018-09-20T03:53:33.866Z,84.70
2018-09-20T03:56:02.338Z,84.70
2018-09-20T03:58:30.824Z,85.40
2018-09-20T04:00:59.590Z,84.50
2018-09-20T04:03:28.060Z,84.50
2018-09-20T04:05:56.561Z,84.70
2018-09-20T04:08:25.051Z,84.80
2018-09-20T04:11:27.617Z,84.30
2018-09-20T04:13:56.120Z,85.10
2018-09-20T04:16:24.596Z,85.30
2018-09-20T04:18:53.120Z,85.10
2018-09-20T04:21:28.951Z,85.00
2018-09-20T04:23:57.447Z,85.20
2018-09-20T04:26:25.911Z,85.90
2018-09-20T04:28:54.444Z,85.40
2018-09-20T04:31:22.971Z,84.90
2018-09-20T04:33:51.453Z,85.60
2018-09-20T04:36:20.115Z,86.00
2018-09-20T04:38:48.588Z,85.80
2018-09-20T04:41:17.102Z,85.70
2018-09-20T04:43:45.856Z,85.90
2018-09-20T04:46:14.338Z,86.50
2018-09-20T04:48:42.871Z,85.90
2018-09-20T04:51:11.355Z,86.10
2018-09-20T04:53:39.815Z,86.00
2018-09-20T04:56:08.299Z,86.10
2018-09-20T04:58:37.050Z,86.20
2018-09-20T05:01:05.565Z,86.10
2018-09-20T05:03:34.034Z,86.20
2018-09-20T05:06:02.841Z,86.30
2018-09-20T05:08:31.320Z,86.40
2018-09-20T05:10:59.792Z,86.40
2018-09-20T05:13:28.292Z,86.40
2018-09-20T05:15:56.785Z,86.20
2018-09-20T05:18:25.302Z,86.10
2018-09-20T05:20:53.856Z,86.00
2018-09-20T05:23:22.371Z,86.00
2018-09-20T05:25:50.884Z,85.90
2018-09-20T05:28:19.377Z,85.80
2018-09-20T05:30:48.347Z,85.80
2018-09-20T05:33:16.932Z,85.70
2018-09-20T05:35:45.356Z,85.60
2018-09-20T05:38:13.874Z,85.60
2018-09-20T05:40:42.363Z,85.30
2018-09-20T05:43:10.831Z,84.90
2018-09-20T05:45:39.395Z,84.70
2018-09-20T05:48:07.887Z,84.50
2018-09-20T05:50:36.544Z,84.40
2018-09-20T05:53:04.995Z,84.30
2018-09-20T05:55:33.477Z,84.30
2018-09-20T05:58:01.991Z,84.30
2018-09-20T06:00:30.508Z,84.10
2018-09-20T06:02:59.027Z,84.60
2018-09-20T06:05:27.505Z,84.30
2018-09-20T06:07:55.967Z,83.90
2018-09-20T06:10:24.843Z,83.60
2018-09-20T06:12:53.327Z,82.90
2018-09-20T06:15:21.823Z,83.70
2018-09-20T06:17:50.287Z,83.60
2018-09-20T06:20:18.795Z,83.70
2018-09-20T06:22:47.281Z,83.90
2018-09-20T06:25:15.730Z,84.00
2018-09-20T06:27:44.305Z,83.80
2018-09-20T06:30:12.748Z,83.20
2018-09-20T06:32:41.373Z,83.30
2018-09-20T06:35:09.919Z,83.20
2018-09-20T06:37:38.407Z,82.70
2018-09-20T06:40:06.900Z,82.90
2018-09-20T06:42:35.457Z,85.70
2018-09-20T06:45:04.015Z,87.90
2018-09-20T06:47:32.503Z,88.10
2018-09-20T06:50:00.999Z,87.90
2018-09-20T06:52:29.469Z,89.50
2018-09-20T06:54:57.947Z,85.60
2018-09-20T06:57:27.130Z,88.00
2018-09-20T06:59:55.630Z,84.30
2018-09-20T07:02:24.095Z,85.40
2018-09-20T07:04:52.601Z,84.50
2018-09-20T07:07:21.710Z,83.70
2018-09-20T07:09:50.227Z,84.00
2018-09-20T07:12:18.756Z,83.00
2018-09-20T07:14:47.242Z,82.60
2018-09-20T07:17:15.717Z,82.10
2018-09-20T07:19:44.507Z,80.70
2018-09-20T07:22:12.985Z,80.00
2018-09-20T07:24:41.489Z,79.20
2018-09-20T07:27:10.155Z,79.20
2018-09-20T07:29:38.660Z,78.10
2018-09-20T07:32:07.154Z,77.70
2018-09-20T07:34:35.677Z,76.60
2018-09-20T07:37:04.189Z,76.20
2018-09-20T07:39:32.647Z,75.40
2018-09-20T07:42:01.428Z,74.40
2018-09-20T07:44:29.896Z,74.00
2018-09-20T07:46:58.367Z,74.00
2018-09-20T07:49:26.885Z,73.50
2018-09-20T07:51:55.380Z,73.60
2018-09-20T07:54:23.838Z,72.80
2018-09-20T07:56:52.354Z,71.70
2018-09-20T07:59:20.817Z,71.50
2018-09-20T08:01:49.341Z,71.30
2018-09-20T08:04:17.815Z,70.60
2018-09-20T08:06:46.322Z,70.80
2018-09-20T08:09:14.828Z,69.40
2018-09-20T08:11:43.593Z,68.50
2018-09-20T08:14:12.068Z,69.70
2018-09-20T08:16:40.535Z,69.90
2018-09-20T08:19:09.039Z,68.90
2018-09-20T08:21:38.625Z,67.70
2018-09-20T08:24:07.285Z,68.00
2018-09-20T08:26:35.776Z,67.30
2018-09-20T08:29:04.277Z,66.90
2018-09-20T08:31:32.742Z,66.50
2018-09-20T08:34:01.239Z,66.00
2018-09-20T08:36:29.756Z,64.50
2018-09-20T08:38:58.226Z,62.80
2018-09-20T08:41:26.754Z,64.30
2018-09-20T08:43:55.406Z,62.90
2018-09-20T08:46:23.910Z,62.20
2018-09-20T08:48:52.412Z,62.90
2018-09-20T08:51:20.881Z,63.10
2018-09-20T08:53:49.342Z,62.20
2018-09-20T08:56:17.842Z,60.80
2018-09-20T08:58:46.382Z,60.90
2018-09-20T09:01:14.877Z,59.60
2018-09-20T09:03:43.395Z,58.30
2018-09-20T09:06:11.893Z,58.00
2018-09-20T09:08:40.384Z,56.60
2018-09-20T09:11:08.878Z,56.70
2018-09-20T09:13:37.354Z,56.20
2018-09-20T09:16:05.946Z,56.10
2018-09-20T09:18:34.423Z,56.70
2018-09-20T09:21:02.905Z,56.80
2018-09-20T09:23:31.376Z,56.30
2018-09-20T09:25:59.897Z,56.40
2018-09-20T09:28:28.434Z,54.80
2018-09-20T09:30:56.867Z,55.50
2018-09-20T09:33:25.699Z,56.30
2018-09-20T09:35:54.170Z,55.10
2018-09-20T09:38:22.642Z,55.20
2018-09-20T09:40:51.162Z,56.20
2018-09-20T09:43:19.957Z,56.10
2018-09-20T09:45:48.436Z,55.60
2018-09-20T09:48:16.942Z,55.50
2018-09-20T09:50:45.447Z,54.10
2018-09-20T09:53:13.928Z,53.30
2018-09-20T09:55:42.412Z,53.80
2018-09-20T09:58:10.891Z,53.10
2018-09-20T10:00:41.169Z,53.80
2018-09-20T10:03:09.649Z,52.30
2018-09-20T10:05:38.154Z,52.50
2018-09-20T10:08:06.761Z,52.00
2018-09-20T10:10:35.245Z,52.30
2018-09-20T10:13:04.054Z,51.90
2018-09-20T10:15:32.520Z,52.50
2018-09-20T10:18:01.033Z,53.00
2018-09-20T10:20:29.488Z,53.40
2018-09-20T10:22:57.978Z,52.90
2018-09-20T10:25:26.464Z,53.40
2018-09-20T10:27:54.931Z,54.10
2018-09-20T10:30:23.448Z,54.30
2018-09-20T10:32:51.953Z,54.70
2018-09-20T10:35:20.414Z,54.20
2018-09-20T10:37:49.110Z,54.80
2018-09-20T10:40:17.587Z,54.40
2018-09-20T10:42:46.065Z,54.10
2018-09-20T10:45:14.533Z,54.30
2018-09-20T10:47:43.021Z,54.50
2018-09-20T10:50:11.528Z,53.80
2018-09-20T10:52:40.006Z,54.10
2018-09-20T10:55:08.537Z,53.30
2018-09-20T10:57:37.042Z,53.30
2018-09-20T11:00:05.863Z,52.50
2018-09-20T11:02:34.352Z,52.80
2018-09-20T11:05:02.842Z,52.30
2018-09-20T11:07:31.325Z,51.40
2018-09-20T11:09:59.831Z,53.10
2018-09-20T11:12:28.338Z,51.40
2018-09-20T11:14:56.791Z,51.70
2018-09-20T11:17:25.278Z,51.30
2018-09-20T11:19:53.752Z,50.80
2018-09-20T11:22:22.237Z,51.60
2018-09-20T11:24:50.723Z,49.70
2018-09-20T11:27:19.206Z,51.20
2018-09-20T11:29:47.667Z,49.80
2018-09-20T11:32:16.199Z,51.10
2018-09-20T11:34:44.673Z,50.30
2018-09-20T11:37:13.210Z,50.20
2018-09-20T11:39:41.718Z,50.90
2018-09-20T11:42:10.205Z,49.50
2018-09-20T11:44:38.672Z,50.00
2018-09-20T11:47:07.328Z,49.80
2018-09-20T11:49:35.848Z,50.50
2018-09-20T11:52:04.346Z,49.50
2018-09-20T11:54:33.149Z,50.10
2018-09-20T11:57:01.620Z,49.90
2018-09-20T11:59:30.166Z,49.70
2018-09-20T12:01:58.716Z,50.20
2018-09-20T12:04:27.166Z,49.40
2018-09-20T12:06:55.631Z,49.90
2018-09-20T12:09:24.131Z,49.60
2018-09-20T12:11:52.607Z,48.80
2018-09-20T12:14:21.482Z,48.90
2018-09-20T12:16:50.019Z,49.20
2018-09-20T12:19:18.491Z,49.20
2018-09-20T12:21:46.955Z,48.80
2018-09-20T12:24:15.446Z,49.10
2018-09-20T12:26:43.922Z,48.60
2018-09-20T12:29:12.399Z,49.10
2018-09-20T12:31:40.920Z,49.00
2018-09-20T12:34:09.383Z,48.60
2018-09-20T12:36:38.174Z,47.90
2018-09-20T12:39:09.660Z,48.20
2018-09-20T12:41:38.187Z,48.70
2018-09-20T12:44:06.824Z,49.00
2018-09-20T12:46:35.371Z,47.60
2018-09-20T12:49:04.075Z,47.50
2018-09-20T12:51:32.870Z,46.90
2018-09-20T12:54:01.469Z,46.80
2018-09-20T12:56:30.003Z,47.10
2018-09-20T12:58:58.524Z,46.80
2018-09-20T13:01:27.047Z,46.90
2018-09-20T13:03:55.520Z,47.00
2018-09-20T13:06:23.961Z,47.60
2018-09-20T13:08:52.473Z,46.50
2018-09-20T13:11:21.002Z,46.20
2018-09-20T13:13:49.459Z,45.90
2018-09-20T13:16:17.973Z,45.50
2018-09-20T13:18:46.422Z,45.40
2018-09-20T13:21:15.247Z,45.50
2018-09-20T13:23:43.783Z,44.80
2018-09-20T13:26:12.243Z,45.00
2018-09-20T13:28:40.720Z,44.70
2018-09-20T13:31:09.287Z,44.60
2018-09-20T13:33:37.760Z,45.10
2018-09-20T13:36:06.282Z,44.40
2018-09-20T13:38:35.150Z,45.00
2018-09-20T13:41:03.623Z,45.00
2018-09-20T13:43:32.171Z,44.60
2018-09-20T13:46:00.722Z,44.70
2018-09-20T13:48:29.206Z,44.90
2018-09-20T13:50:57.704Z,44.30
2018-09-20T13:53:26.184Z,44.70
2018-09-20T13:55:54.658Z,44.90
2018-09-20T13:58:23.136Z,44.50
2018-09-20T14:00:51.661Z,43.20
2018-09-20T14:03:20.129Z,43.70
2018-09-20T14:05:48.633Z,44.10
2018-09-20T14:08:17.079Z,44.80
2018-09-20T14:10:45.533Z,44.70
2018-09-20T14:13:14.010Z,44.60
2018-09-20T14:15:42.509Z,44.70
2018-09-20T14:18:10.995Z,44.60
2018-09-20T14:20:39.494Z,44.30
2018-09-20T14:23:07.990Z,44.80
2018-09-20T14:25:36.644Z,44.50
2018-09-20T14:28:05.114Z,44.00
2018-09-20T14:30:33.646Z,44.00
2018-09-20T14:33:02.210Z,44.10
2018-09-20T14:35:30.689Z,43.60
2018-09-20T14:37:59.177Z,44.30
2018-09-20T14:40:27.666Z,44.20
2018-09-20T14:42:56.154Z,43.70
2018-09-20T14:45:24.648Z,44.10
2018-09-20T14:47:53.134Z,43.60
2018-09-20T14:50:21.609Z,43.50
2018-09-20T14:52:50.095Z,43.60
2018-09-20T14:55:18.584Z,44.00
2018-09-20T14:57:47.027Z,43.30
2018-09-20T15:00:15.530Z,43.00
2018-09-20T15:02:44.018Z,43.60
2018-09-20T15:05:12.495Z,42.60
2018-09-20T15:07:40.962Z,42.80
2018-09-20T15:10:09.443Z,43.00
2018-09-20T15:12:37.922Z,43.10
2018-09-20T15:15:06.576Z,42.80
2018-09-20T15:17:35.047Z,42.70
2018-09-20T15:20:03.538Z,42.70
2018-09-20T15:22:32.015Z,42.50
2018-09-20T15:25:00.473Z,42.00
2018-09-20T15:27:28.975Z,42.30
2018-09-20T15:29:57.470Z,42.60
2018-09-20T15:32:26.273Z,42.70
2018-09-20T15:34:54.955Z,43.10
2018-09-20T15:37:23.519Z,42.80
2018-09-20T15:39:51.984Z,43.20
2018-09-20T15:42:20.482Z,43.50
2018-09-20T15:44:48.964Z,43.50
2018-09-20T15:47:17.439Z,43.50
2018-09-20T15:49:45.925Z,44.00
2018-09-20T15:52:14.407Z,43.60
2018-09-20T15:54:42.883Z,44.30
2018-09-20T15:57:11.363Z,44.60
2018-09-20T15:59:39.867Z,44.30
2018-09-20T16:02:08.537Z,45.20
2018-09-20T16:04:37.024Z,45.50
2018-09-20T16:07:05.624Z,45.60
2018-09-20T16:09:34.207Z,45.20
2018-09-20T16:12:02.788Z,44.80
2018-09-20T16:14:31.349Z,44.60
2018-09-20T16:16:59.848Z,45.70
2018-09-20T16:19:28.352Z,45.50
2018-09-20T16:21:57.432Z,46.90
2018-09-20T16:24:26.011Z,46.00
2018-09-20T16:26:54.608Z,45.80
2018-09-20T16:29:37.452Z,47.00
2018-09-20T16:32:18.699Z,46.80
2018-09-20T16:38:02.556Z,46.80
2018-09-20T16:40:34.918Z,47.80
2018-09-20T16:43:03.475Z,49.10
2018-09-20T16:45:32.156Z,49.70
2018-09-20T16:48:00.641Z,50.50
2018-09-20T16:50:29.568Z,51.10
2018-09-20T16:52:58.129Z,52.20
2018-09-20T16:55:26.600Z,52.20
2018-09-20T16:57:55.125Z,52.60
2018-09-20T17:00:23.690Z,52.70
2018-09-20T17:02:52.194Z,53.30
2018-09-20T17:05:20.677Z,53.20
2018-09-20T17:07:49.297Z,53.50
2018-09-20T17:10:17.807Z,54.20
2018-09-20T17:12:46.308Z,55.20
2018-09-20T17:15:14.908Z,56.00
2018-09-20T17:17:43.433Z,56.50
2018-09-20T17:20:11.943Z,56.80
2018-09-20T17:22:40.492Z,56.80
2018-09-20T17:25:09.005Z,57.00
2018-09-20T17:27:37.488Z,57.90
2018-09-20T17:30:06.274Z,58.60
2018-09-20T17:32:35.012Z,59.20
2018-09-20T17:35:03.585Z,59.10
2018-09-20T17:37:33.729Z,59.00
2018-09-20T17:40:03.096Z,59.90
2018-09-20T17:42:33.693Z,59.80
2018-09-20T17:45:02.208Z,60.10
2018-09-20T17:47:30.781Z,60.30
2018-09-20T17:49:59.279Z,60.20
2018-09-20T17:52:28.861Z,61.30
2018-09-20T17:54:58.389Z,61.50
2018-09-20T17:57:28.012Z,62.10
2018-09-20T17:59:56.552Z,63.30
2018-09-20T18:02:25.064Z,62.40
2018-09-20T18:04:53.593Z,62.90
2018-09-20T18:07:22.100Z,63.90
2018-09-20T18:09:50.652Z,63.00
2018-09-20T18:12:19.199Z,62.90
2018-09-20T18:14:47.728Z,64.10
2018-09-20T18:17:16.217Z,63.30
2018-09-20T18:19:44.746Z,63.80
2018-09-20T18:22:13.242Z,64.70
2018-09-20T18:24:41.778Z,64.50
2018-09-20T18:27:10.303Z,64.20
2018-09-20T18:29:38.836Z,64.20
2018-09-20T18:32:07.341Z,64.20
2018-09-20T18:34:36.065Z,64.80
2018-09-20T18:37:04.629Z,65.10
2018-09-20T18:39:33.141Z,65.60
2018-09-20T18:42:01.651Z,64.60
2018-09-20T18:44:30.188Z,65.60
2018-09-20T18:46:58.711Z,66.10
2018-09-20T18:49:27.233Z,66.70
2018-09-20T18:51:55.735Z,66.30
2018-09-20T18:54:24.227Z,66.60
2018-09-20T18:56:52.759Z,66.70
2018-09-20T18:59:21.275Z,66.70
2018-09-20T19:01:49.816Z,66.80
2018-09-20T19:04:18.329Z,66.20
2018-09-20T19:06:46.875Z,66.40
2018-09-20T19:09:15.396Z,66.90
2018-09-20T19:11:43.889Z,67.10
2018-09-20T19:14:12.420Z,67.20
2018-09-20T19:16:41.248Z,67.50
2018-09-20T19:19:09.756Z,68.10
2018-09-20T19:21:38.289Z,68.30
2018-09-20T19:24:06.816Z,68.20
2018-09-20T19:26:35.351Z,68.50
2018-09-20T19:29:04.100Z,68.50
2018-09-20T19:31:32.605Z,67.90
2018-09-20T19:34:01.152Z,68.20
2018-09-20T19:36:29.752Z,68.90
2018-09-20T19:38:58.454Z,69.20
2018-09-20T19:41:26.889Z,69.20
2018-09-20T19:43:55.412Z,69.50
2018-09-20T19:46:23.913Z,69.50
2018-09-20T19:48:52.403Z,69.70
2018-09-20T19:51:20.948Z,69.40
2018-09-20T19:53:49.483Z,69.50
2018-09-20T19:56:18.020Z,69.90
2018-09-20T19:58:46.647Z,69.90
2018-09-20T20:01:15.163Z,71.20
2018-09-20T20:03:43.710Z,70.00
2018-09-20T20:06:12.255Z,70.40
2018-09-20T20:08:40.807Z,70.80
2018-09-20T20:11:09.417Z,70.80
2018-09-20T20:13:37.917Z,70.90
2018-09-20T20:16:06.605Z,71.30
2018-09-20T20:18:35.120Z,71.40
2018-09-20T20:21:03.629Z,71.90
2018-09-20T20:23:32.468Z,71.60
2018-09-20T20:26:01.348Z,72.00
2018-09-20T20:28:30.167Z,72.10
2018-09-20T20:30:59.040Z,72.10
2018-09-20T20:33:27.865Z,71.90
2018-09-20T20:35:56.412Z,72.20
2018-09-20T20:38:25.203Z,72.70
2018-09-20T20:40:53.753Z,72.50
2018-09-20T20:43:22.286Z,72.40
2018-09-20T20:45:50.803Z,72.70
2018-09-20T20:48:19.351Z,72.50
2018-09-20T20:50:47.891Z,72.40
2018-09-20T20:53:16.425Z,72.80
2018-09-20T20:55:44.947Z,72.80
2018-09-20T20:58:13.475Z,73.20
2018-09-20T21:00:41.973Z,73.00
2018-09-20T21:03:10.484Z,73.20
2018-09-20T21:05:38.988Z,73.60
2018-09-20T21:08:07.683Z,73.20
2018-09-20T21:10:36.194Z,73.50
2018-09-20T21:13:04.733Z,73.90
2018-09-20T21:15:33.221Z,74.00
2018-09-20T21:18:01.729Z,74.00
2018-09-20T21:20:30.287Z,74.30
2018-09-20T21:22:58.813Z,74.20
2018-09-20T21:25:27.316Z,74.10
2018-09-20T21:27:55.846Z,74.20
2018-09-20T21:30:24.439Z,74.00
2018-09-20T21:32:52.913Z,74.40
2018-09-20T21:35:21.428Z,74.60
2018-09-20T21:37:50.203Z,74.50
2018-09-20T21:40:18.736Z,74.50
2018-09-20T21:42:47.261Z,74.80
2018-09-20T21:45:15.785Z,75.00
2018-09-20T21:47:44.307Z,75.10
2018-09-20T21:50:12.860Z,75.00
2018-09-20T21:52:41.349Z,75.60
2018-09-20T21:55:09.871Z,75.70
2018-09-20T21:57:38.396Z,75.40
2018-09-20T22:00:07.551Z,76.00
2018-09-20T22:02:41.341Z,75.90
2018-09-20T22:05:09.839Z,76.20
2018-09-20T22:07:38.336Z,76.60
2018-09-20T22:10:06.941Z,77.00
2018-09-20T22:12:35.455Z,77.00
2018-09-20T22:15:04.020Z,77.00
2018-09-20T22:17:32.508Z,77.00
2018-09-20T22:20:01.069Z,77.00
2018-09-20T22:22:29.580Z,77.00
2018-09-20T22:24:58.123Z,77.40
2018-09-20T22:27:26.644Z,77.40
2018-09-20T22:29:55.180Z,77.70
2018-09-20T22:32:23.695Z,77.60
2018-09-20T22:34:52.197Z,77.60
2018-09-20T22:37:20.733Z,78.00
2018-09-20T22:39:49.319Z,78.10
2018-09-20T22:42:17.790Z,78.20
2018-09-20T22:44:46.322Z,78.30
2018-09-20T22:47:14.802Z,78.30
2018-09-20T22:49:43.308Z,78.40
2018-09-20T22:52:11.838Z,78.50
2018-09-20T22:54:40.360Z,78.70
2018-09-20T22:57:08.888Z,78.60
2018-09-20T22:59:37.416Z,78.70
2018-09-20T23:02:05.921Z,79.50
2018-09-20T23:04:34.424Z,78.80
2018-09-20T23:07:03.009Z,79.00
2018-09-20T23:09:31.520Z,79.00
2018-09-20T23:12:00.147Z,79.20
2018-09-20T23:14:28.686Z,79.30
2018-09-20T23:16:57.315Z,79.50
2018-09-20T23:19:25.804Z,79.60
2018-09-20T23:21:54.356Z,79.70
2018-09-20T23:24:22.914Z,79.70
2018-09-20T23:26:51.448Z,79.70
2018-09-20T23:29:19.978Z,79.80
2018-09-20T23:31:48.534Z,80.00
2018-09-20T23:34:17.032Z,80.00
2018-09-20T23:36:45.848Z,80.20
2018-09-20T23:39:14.560Z,80.20
2018-09-20T23:41:43.091Z,80.10
2018-09-20T23:44:11.628Z,80.40
2018-09-20T23:46:40.151Z,80.40
2018-09-20T23:49:08.667Z,80.40
2018-09-20T23:51:37.171Z,80.50
2018-09-20T23:54:06.017Z,80.60
2018-09-20T23:56:34.543Z,80.80
2018-09-20T23:59:03.077Z,80.90
